sensor_id;sensor_type;location;lat;lon;timestamp;temperature;humidity
4677;DHT22;2352;48.180;11.478;2023-07-16T00:00:24;26.60;88.30
4677;DHT22;2352;48.180;11.478;2023-07-16T00:03:27;26.50;88.50
4677;DHT22;2352;48.180;11.478;2023-07-16T00:06:30;26.40;89.10
4677;DHT22;2352;48.180;11.478;2023-07-16T00:09:35;26.40;89.20
4677;DHT22;2352;48.180;11.478;2023-07-16T00:12:38;26.40;89.80
4677;DHT22;2352;48.180;11.478;2023-07-16T00:15:41;26.40;90.00
4677;DHT22;2352;48.180;11.478;2023-07-16T00:18:44;26.50;90.10
4677;DHT22;2352;48.180;11.478;2023-07-16T00:21:48;26.40;90.20
4677;DHT22;2352;48.180;11.478;2023-07-16T00:24:52;26.30;90.40
4677;DHT22;2352;48.180;11.478;2023-07-16T00:27:55;26.30;90.60
4677;DHT22;2352;48.180;11.478;2023-07-16T00:30:58;26.20;90.80
4677;DHT22;2352;48.180;11.478;2023-07-16T00:34:01;26.30;91.00
4677;DHT22;2352;48.180;11.478;2023-07-16T00:37:04;26.20;90.70
4677;DHT22;2352;48.180;11.478;2023-07-16T00:40:09;26.30;90.80
4677;DHT22;2352;48.180;11.478;2023-07-16T00:43:13;26.10;91.40
4677;DHT22;2352;48.180;11.478;2023-07-16T00:46:16;26.00;91.50
4677;DHT22;2352;48.180;11.478;2023-07-16T00:49:20;25.90;91.60
4677;DHT22;2352;48.180;11.478;2023-07-16T00:52:23;25.80;92.20
4677;DHT22;2352;48.180;11.478;2023-07-16T00:55:29;25.70;92.70
4677;DHT22;2352;48.180;11.478;2023-07-16T00:58:32;25.60;93.10
4677;DHT22;2352;48.180;11.478;2023-07-16T01:01:35;25.60;93.10
4677;DHT22;2352;48.180;11.478;2023-07-16T01:04:39;25.60;93.50
4677;DHT22;2352;48.180;11.478;2023-07-16T01:07:51;25.50;93.80
4677;DHT22;2352;48.180;11.478;2023-07-16T01:10:57;25.40;94.10
4677;DHT22;2352;48.180;11.478;2023-07-16T01:14:01;25.40;94.10
4677;DHT22;2352;48.180;11.478;2023-07-16T01:17:05;25.40;94.20
4677;DHT22;2352;48.180;11.478;2023-07-16T01:20:09;25.40;94.20
4677;DHT22;2352;48.180;11.478;2023-07-16T01:23:35;25.30;94.60
4677;DHT22;2352;48.180;11.478;2023-07-16T01:27:03;25.40;94.70
4677;DHT22;2352;48.180;11.478;2023-07-16T01:30:10;25.40;94.60
4677;DHT22;2352;48.180;11.478;2023-07-16T01:33:17;25.40;94.70
4677;DHT22;2352;48.180;11.478;2023-07-16T01:36:21;25.30;94.90
4677;DHT22;2352;48.180;11.478;2023-07-16T01:39:25;25.30;94.80
4677;DHT22;2352;48.180;11.478;2023-07-16T01:42:28;25.30;94.90
4677;DHT22;2352;48.180;11.478;2023-07-16T01:45:33;25.30;94.90
4677;DHT22;2352;48.180;11.478;2023-07-16T01:48:37;25.30;95.20
4677;DHT22;2352;48.180;11.478;2023-07-16T01:51:40;25.20;95.40
4677;DHT22;2352;48.180;11.478;2023-07-16T01:54:43;25.30;95.40
4677;DHT22;2352;48.180;11.478;2023-07-16T01:57:46;25.30;95.50
4677;DHT22;2352;48.180;11.478;2023-07-16T02:00:50;25.30;95.30
4677;DHT22;2352;48.180;11.478;2023-07-16T02:03:54;25.30;95.60
4677;DHT22;2352;48.180;11.478;2023-07-16T02:06:57;25.20;95.50
4677;DHT22;2352;48.180;11.478;2023-07-16T02:10:00;25.30;95.90
4677;DHT22;2352;48.180;11.478;2023-07-16T02:13:03;25.30;95.70
4677;DHT22;2352;48.180;11.478;2023-07-16T02:16:07;25.30;95.90
4677;DHT22;2352;48.180;11.478;2023-07-16T02:19:10;25.20;95.50
4677;DHT22;2352;48.180;11.478;2023-07-16T02:22:13;25.20;95.70
4677;DHT22;2352;48.180;11.478;2023-07-16T02:25:16;25.20;96.10
4677;DHT22;2352;48.180;11.478;2023-07-16T02:28:19;25.20;96.00
4677;DHT22;2352;48.180;11.478;2023-07-16T02:31:25;25.20;95.90
4677;DHT22;2352;48.180;11.478;2023-07-16T02:34:28;25.20;96.10
4677;DHT22;2352;48.180;11.478;2023-07-16T02:37:31;25.20;96.00
4677;DHT22;2352;48.180;11.478;2023-07-16T02:40:34;25.20;95.90
4677;DHT22;2352;48.180;11.478;2023-07-16T02:43:37;25.20;96.10
4677;DHT22;2352;48.180;11.478;2023-07-16T02:46:42;25.20;96.30
4677;DHT22;2352;48.180;11.478;2023-07-16T02:49:46;25.10;96.20
4677;DHT22;2352;48.180;11.478;2023-07-16T02:52:48;25.10;96.30
4677;DHT22;2352;48.180;11.478;2023-07-16T02:55:51;25.10;96.30
4677;DHT22;2352;48.180;11.478;2023-07-16T02:58:54;25.10;96.50
4677;DHT22;2352;48.180;11.478;2023-07-16T03:01:59;25.10;96.50
4677;DHT22;2352;48.180;11.478;2023-07-16T03:05:02;25.00;96.60
4677;DHT22;2352;48.180;11.478;2023-07-16T03:08:05;25.00;96.80
4677;DHT22;2352;48.180;11.478;2023-07-16T03:11:08;25.00;96.80
4677;DHT22;2352;48.180;11.478;2023-07-16T03:14:11;24.90;97.00
4677;DHT22;2352;48.180;11.478;2023-07-16T03:17:15;24.90;96.90
4677;DHT22;2352;48.180;11.478;2023-07-16T03:20:18;24.90;96.90
4677;DHT22;2352;48.180;11.478;2023-07-16T03:23:22;24.90;97.10
4677;DHT22;2352;48.180;11.478;2023-07-16T03:26:25;24.90;97.10
4677;DHT22;2352;48.180;11.478;2023-07-16T03:29:28;24.90;97.30
4677;DHT22;2352;48.180;11.478;2023-07-16T03:32:32;24.90;97.20
4677;DHT22;2352;48.180;11.478;2023-07-16T03:35:52;24.80;97.10
4677;DHT22;2352;48.180;11.478;2023-07-16T03:38:55;24.80;96.90
4677;DHT22;2352;48.180;11.478;2023-07-16T03:41:58;24.90;96.80
4677;DHT22;2352;48.180;11.478;2023-07-16T03:45:01;24.90;96.80
4677;DHT22;2352;48.180;11.478;2023-07-16T03:48:06;24.90;96.40
4677;DHT22;2352;48.180;11.478;2023-07-16T03:51:10;24.80;96.50
4677;DHT22;2352;48.180;11.478;2023-07-16T03:54:12;24.90;96.60
4677;DHT22;2352;48.180;11.478;2023-07-16T03:57:16;24.80;96.40
4677;DHT22;2352;48.180;11.478;2023-07-16T04:00:19;24.90;95.90
4677;DHT22;2352;48.180;11.478;2023-07-16T04:03:23;24.90;96.20
4677;DHT22;2352;48.180;11.478;2023-07-16T04:06:26;24.80;96.20
4677;DHT22;2352;48.180;11.478;2023-07-16T04:09:29;24.90;95.90
4677;DHT22;2352;48.180;11.478;2023-07-16T04:12:32;24.80;96.20
4677;DHT22;2352;48.180;11.478;2023-07-16T04:15:35;24.70;96.40
4677;DHT22;2352;48.180;11.478;2023-07-16T04:18:40;24.70;96.90
4677;DHT22;2352;48.180;11.478;2023-07-16T04:21:43;24.50;97.50
4677;DHT22;2352;48.180;11.478;2023-07-16T04:24:45;24.50;97.90
4677;DHT22;2352;48.180;11.478;2023-07-16T04:27:48;24.60;98.60
4677;DHT22;2352;48.180;11.478;2023-07-16T04:30:51;24.60;99.10
4677;DHT22;2352;48.180;11.478;2023-07-16T04:33:56;24.50;99.30
4677;DHT22;2352;48.180;11.478;2023-07-16T04:36:59;24.50;99.30
4677;DHT22;2352;48.180;11.478;2023-07-16T04:40:02;24.60;99.50
4677;DHT22;2352;48.180;11.478;2023-07-16T04:43:06;24.50;99.70
4677;DHT22;2352;48.180;11.478;2023-07-16T04:46:09;24.40;99.90
4677;DHT22;2352;48.180;11.478;2023-07-16T04:49:15;24.40;99.70
4677;DHT22;2352;48.180;11.478;2023-07-16T04:52:18;24.40;99.90
4677;DHT22;2352;48.180;11.478;2023-07-16T04:55:21;24.40;99.90
4677;DHT22;2352;48.180;11.478;2023-07-16T04:58:24;24.40;99.90
4677;DHT22;2352;48.180;11.478;2023-07-16T05:01:27;24.40;99.90
4677;DHT22;2352;48.180;11.478;2023-07-16T05:04:31;24.40;99.90
4677;DHT22;2352;48.180;11.478;2023-07-16T05:07:34;24.30;99.90
4677;DHT22;2352;48.180;11.478;2023-07-16T05:10:37;24.30;99.90
4677;DHT22;2352;48.180;11.478;2023-07-16T05:13:40;24.30;99.90
4677;DHT22;2352;48.180;11.478;2023-07-16T05:16:43;24.30;99.90
4677;DHT22;2352;48.180;11.478;2023-07-16T05:19:48;24.20;99.90
4677;DHT22;2352;48.180;11.478;2023-07-16T05:22:51;24.20;99.90
4677;DHT22;2352;48.180;11.478;2023-07-16T05:25:54;24.20;99.90
4677;DHT22;2352;48.180;11.478;2023-07-16T05:28:57;24.20;99.90
4677;DHT22;2352;48.180;11.478;2023-07-16T05:31:59;24.20;99.90
4677;DHT22;2352;48.180;11.478;2023-07-16T05:35:05;24.20;99.90
4677;DHT22;2352;48.180;11.478;2023-07-16T05:38:08;24.20;99.90
4677;DHT22;2352;48.180;11.478;2023-07-16T05:41:11;24.20;99.90
4677;DHT22;2352;48.180;11.478;2023-07-16T05:44:14;24.20;99.90
4677;DHT22;2352;48.180;11.478;2023-07-16T05:47:17;24.20;99.90
4677;DHT22;2352;48.180;11.478;2023-07-16T05:50:21;24.10;99.90
4677;DHT22;2352;48.180;11.478;2023-07-16T05:53:24;24.10;99.90
4677;DHT22;2352;48.180;11.478;2023-07-16T05:56:27;24.20;99.90
4677;DHT22;2352;48.180;11.478;2023-07-16T05:59:31;24.20;99.90
4677;DHT22;2352;48.180;11.478;2023-07-16T06:02:35;24.40;99.90
4677;DHT22;2352;48.180;11.478;2023-07-16T06:05:40;24.40;99.90
4677;DHT22;2352;48.180;11.478;2023-07-16T06:08:45;24.30;99.90
4677;DHT22;2352;48.180;11.478;2023-07-16T06:11:48;24.40;99.90
4677;DHT22;2352;48.180;11.478;2023-07-16T06:14:51;24.40;99.90
4677;DHT22;2352;48.180;11.478;2023-07-16T06:17:54;24.40;99.90
4677;DHT22;2352;48.180;11.478;2023-07-16T06:20:58;24.30;99.90
4677;DHT22;2352;48.180;11.478;2023-07-16T06:24:01;24.30;99.90
4677;DHT22;2352;48.180;11.478;2023-07-16T06:27:05;24.40;99.90
4677;DHT22;2352;48.180;11.478;2023-07-16T06:30:08;24.40;99.90
4677;DHT22;2352;48.180;11.478;2023-07-16T06:33:11;24.40;99.90
4677;DHT22;2352;48.180;11.478;2023-07-16T06:36:16;24.40;99.90
4677;DHT22;2352;48.180;11.478;2023-07-16T06:39:20;24.40;99.90
4677;DHT22;2352;48.180;11.478;2023-07-16T06:42:23;24.40;99.90
4677;DHT22;2352;48.180;11.478;2023-07-16T06:45:26;24.50;99.90
4677;DHT22;2352;48.180;11.478;2023-07-16T06:48:29;24.70;99.90
4677;DHT22;2352;48.180;11.478;2023-07-16T06:51:33;24.40;99.90
4677;DHT22;2352;48.180;11.478;2023-07-16T06:54:36;24.40;99.90
4677;DHT22;2352;48.180;11.478;2023-07-16T06:57:43;24.40;99.90
4677;DHT22;2352;48.180;11.478;2023-07-16T07:00:45;24.50;99.90
4677;DHT22;2352;48.180;11.478;2023-07-16T07:03:48;24.50;99.90
4677;DHT22;2352;48.180;11.478;2023-07-16T07:06:53;24.60;99.90
4677;DHT22;2352;48.180;11.478;2023-07-16T07:09:56;24.60;99.90
4677;DHT22;2352;48.180;11.478;2023-07-16T07:12:59;24.50;99.90
4677;DHT22;2352;48.180;11.478;2023-07-16T07:16:02;24.50;99.90
4677;DHT22;2352;48.180;11.478;2023-07-16T07:19:05;24.50;99.90
4677;DHT22;2352;48.180;11.478;2023-07-16T07:22:10;24.50;99.90
4677;DHT22;2352;48.180;11.478;2023-07-16T07:25:13;24.50;99.90
4677;DHT22;2352;48.180;11.478;2023-07-16T07:28:16;24.50;99.90
4677;DHT22;2352;48.180;11.478;2023-07-16T07:31:19;24.50;99.90
4677;DHT22;2352;48.180;11.478;2023-07-16T07:34:23;24.50;99.90
4677;DHT22;2352;48.180;11.478;2023-07-16T07:37:27;24.50;99.90
4677;DHT22;2352;48.180;11.478;2023-07-16T07:40:30;24.50;99.90
4677;DHT22;2352;48.180;11.478;2023-07-16T07:43:34;24.50;99.40
4677;DHT22;2352;48.180;11.478;2023-07-16T07:46:37;24.50;99.60
4677;DHT22;2352;48.180;11.478;2023-07-16T07:49:40;24.50;99.90
4677;DHT22;2352;48.180;11.478;2023-07-16T07:52:44;24.50;99.90
4677;DHT22;2352;48.180;11.478;2023-07-16T07:55:47;24.50;99.90
4677;DHT22;2352;48.180;11.478;2023-07-16T07:58:50;24.50;99.90
4677;DHT22;2352;48.180;11.478;2023-07-16T08:01:53;24.60;99.90
4677;DHT22;2352;48.180;11.478;2023-07-16T08:04:56;24.60;99.30
4677;DHT22;2352;48.180;11.478;2023-07-16T08:08:04;24.60;99.10
4677;DHT22;2352;48.180;11.478;2023-07-16T08:11:07;24.60;98.70
4677;DHT22;2352;48.180;11.478;2023-07-16T08:14:10;24.60;98.10
4677;DHT22;2352;48.180;11.478;2023-07-16T08:17:13;24.60;98.20
4677;DHT22;2352;48.180;11.478;2023-07-16T08:20:16;24.70;98.90
4677;DHT22;2352;48.180;11.478;2023-07-16T08:23:20;24.80;98.90
4677;DHT22;2352;48.180;11.478;2023-07-16T08:26:24;24.90;99.20
4677;DHT22;2352;48.180;11.478;2023-07-16T08:29:27;25.00;98.00
4677;DHT22;2352;48.180;11.478;2023-07-16T08:32:30;25.10;97.60
4677;DHT22;2352;48.180;11.478;2023-07-16T08:35:33;25.10;97.10
4677;DHT22;2352;48.180;11.478;2023-07-16T08:38:38;25.10;97.10
4677;DHT22;2352;48.180;11.478;2023-07-16T08:41:41;24.90;97.20
4677;DHT22;2352;48.180;11.478;2023-07-16T08:44:44;25.00;97.20
4677;DHT22;2352;48.180;11.478;2023-07-16T08:47:48;25.00;96.70
4677;DHT22;2352;48.180;11.478;2023-07-16T08:50:51;25.00;96.30
4677;DHT22;2352;48.180;11.478;2023-07-16T08:53:55;25.00;96.20
4677;DHT22;2352;48.180;11.478;2023-07-16T08:56:59;25.20;96.40
4677;DHT22;2352;48.180;11.478;2023-07-16T09:00:03;25.30;96.20
4677;DHT22;2352;48.180;11.478;2023-07-16T09:03:07;25.30;95.10
4677;DHT22;2352;48.180;11.478;2023-07-16T09:06:10;25.30;95.20
4677;DHT22;2352;48.180;11.478;2023-07-16T09:09:22;25.40;94.50
4677;DHT22;2352;48.180;11.478;2023-07-16T09:12:25;25.40;95.20
4677;DHT22;2352;48.180;11.478;2023-07-16T09:15:29;25.40;95.30
4677;DHT22;2352;48.180;11.478;2023-07-16T09:18:32;25.50;94.40
4677;DHT22;2352;48.180;11.478;2023-07-16T09:21:36;25.50;95.10
4677;DHT22;2352;48.180;11.478;2023-07-16T09:24:43;25.50;94.90
4677;DHT22;2352;48.180;11.478;2023-07-16T09:27:48;25.60;95.40
4677;DHT22;2352;48.180;11.478;2023-07-16T09:30:52;25.70;94.50
4677;DHT22;2352;48.180;11.478;2023-07-16T09:33:57;25.70;94.60
4677;DHT22;2352;48.180;11.478;2023-07-16T09:37:01;25.80;94.20
4677;DHT22;2352;48.180;11.478;2023-07-16T09:40:07;25.80;93.40
4677;DHT22;2352;48.180;11.478;2023-07-16T09:43:12;25.80;92.80
4677;DHT22;2352;48.180;11.478;2023-07-16T09:46:15;25.90;93.70
4677;DHT22;2352;48.180;11.478;2023-07-16T09:49:19;25.90;93.20
4677;DHT22;2352;48.180;11.478;2023-07-16T09:52:22;26.00;93.20
4677;DHT22;2352;48.180;11.478;2023-07-16T09:55:28;26.00;93.40
4677;DHT22;2352;48.180;11.478;2023-07-16T09:58:33;26.10;92.20
4677;DHT22;2352;48.180;11.478;2023-07-16T10:01:37;26.20;91.40
4677;DHT22;2352;48.180;11.478;2023-07-16T10:04:41;26.40;90.40
4677;DHT22;2352;48.180;11.478;2023-07-16T10:07:50;26.50;89.80
4677;DHT22;2352;48.180;11.478;2023-07-16T10:10:56;26.50;90.00
4677;DHT22;2352;48.180;11.478;2023-07-16T10:14:00;26.60;90.40
4677;DHT22;2352;48.180;11.478;2023-07-16T10:17:05;26.60;89.50
4677;DHT22;2352;48.180;11.478;2023-07-16T10:20:09;26.60;90.40
4677;DHT22;2352;48.180;11.478;2023-07-16T10:23:13;26.60;90.60
4677;DHT22;2352;48.180;11.478;2023-07-16T10:26:18;26.60;89.20
4677;DHT22;2352;48.180;11.478;2023-07-16T10:29:21;26.50;88.90
4677;DHT22;2352;48.180;11.478;2023-07-16T10:32:27;26.50;88.90
4677;DHT22;2352;48.180;11.478;2023-07-16T10:35:30;26.60;90.50
4677;DHT22;2352;48.180;11.478;2023-07-16T10:38:40;26.50;88.00
4677;DHT22;2352;48.180;11.478;2023-07-16T10:41:46;26.40;88.70
4677;DHT22;2352;48.180;11.478;2023-07-16T10:44:49;26.50;90.40
4677;DHT22;2352;48.180;11.478;2023-07-16T10:47:54;26.60;90.40
4677;DHT22;2352;48.180;11.478;2023-07-16T10:50:57;26.80;90.20
4677;DHT22;2352;48.180;11.478;2023-07-16T10:54:00;26.70;89.70
4677;DHT22;2352;48.180;11.478;2023-07-16T10:57:08;26.80;90.00
4677;DHT22;2352;48.180;11.478;2023-07-16T11:00:12;26.80;89.10
4677;DHT22;2352;48.180;11.478;2023-07-16T11:03:15;26.80;90.10
4677;DHT22;2352;48.180;11.478;2023-07-16T11:06:19;26.80;88.70
4677;DHT22;2352;48.180;11.478;2023-07-16T11:09:22;26.80;87.30
4677;DHT22;2352;48.180;11.478;2023-07-16T11:12:26;26.80;87.20
4677;DHT22;2352;48.180;11.478;2023-07-16T11:15:32;26.80;89.60
4677;DHT22;2352;48.180;11.478;2023-07-16T11:18:36;26.80;90.10
4677;DHT22;2352;48.180;11.478;2023-07-16T11:21:39;26.90;89.40
4677;DHT22;2352;48.180;11.478;2023-07-16T11:24:44;27.00;90.60
4677;DHT22;2352;48.180;11.478;2023-07-16T11:27:54;27.10;90.10
4677;DHT22;2352;48.180;11.478;2023-07-16T11:30:57;27.20;88.50
4677;DHT22;2352;48.180;11.478;2023-07-16T11:34:00;27.20;88.00
4677;DHT22;2352;48.180;11.478;2023-07-16T11:37:08;27.10;90.00
4677;DHT22;2352;48.180;11.478;2023-07-16T11:40:14;27.20;90.40
4677;DHT22;2352;48.180;11.478;2023-07-16T11:43:19;27.20;88.60
4677;DHT22;2352;48.180;11.478;2023-07-16T11:46:22;27.20;89.20
4677;DHT22;2352;48.180;11.478;2023-07-16T11:49:25;27.10;87.20
4677;DHT22;2352;48.180;11.478;2023-07-16T11:52:29;27.20;88.60
4677;DHT22;2352;48.180;11.478;2023-07-16T11:55:32;27.30;90.20
4677;DHT22;2352;48.180;11.478;2023-07-16T11:58:37;27.60;90.90
4677;DHT22;2352;48.180;11.478;2023-07-16T12:01:40;28.00;89.20
4677;DHT22;2352;48.180;11.478;2023-07-16T12:04:43;28.10;89.00
4677;DHT22;2352;48.180;11.478;2023-07-16T12:07:46;28.10;85.00
4677;DHT22;2352;48.180;11.478;2023-07-16T12:10:49;28.00;85.90
4677;DHT22;2352;48.180;11.478;2023-07-16T12:13:54;27.90;85.60
4677;DHT22;2352;48.180;11.478;2023-07-16T12:16:57;27.90;86.80
4677;DHT22;2352;48.180;11.478;2023-07-16T12:20:00;27.90;87.30
4677;DHT22;2352;48.180;11.478;2023-07-16T12:23:05;27.80;88.40
4677;DHT22;2352;48.180;11.478;2023-07-16T12:26:08;27.80;90.20
4677;DHT22;2352;48.180;11.478;2023-07-16T12:29:13;27.80;90.30
4677;DHT22;2352;48.180;11.478;2023-07-16T12:32:16;28.40;90.10
4677;DHT22;2352;48.180;11.478;2023-07-16T12:35:19;27.60;89.20
4677;DHT22;2352;48.180;11.478;2023-07-16T12:38:22;27.50;90.10
4677;DHT22;2352;48.180;11.478;2023-07-16T12:41:25;27.50;90.40
4677;DHT22;2352;48.180;11.478;2023-07-16T12:44:30;27.50;90.30
4677;DHT22;2352;48.180;11.478;2023-07-16T12:47:33;27.60;90.20
4677;DHT22;2352;48.180;11.478;2023-07-16T12:50:37;27.50;89.70
4677;DHT22;2352;48.180;11.478;2023-07-16T12:53:40;27.50;89.70
4677;DHT22;2352;48.180;11.478;2023-07-16T12:56:45;27.50;90.70
4677;DHT22;2352;48.180;11.478;2023-07-16T12:59:49;27.50;90.10
4677;DHT22;2352;48.180;11.478;2023-07-16T13:02:52;27.50;90.70
4677;DHT22;2352;48.180;11.478;2023-07-16T13:05:55;27.50;90.50
4677;DHT22;2352;48.180;11.478;2023-07-16T13:08:59;27.50;90.20
4677;DHT22;2352;48.180;11.478;2023-07-16T13:12:02;27.50;90.00
4677;DHT22;2352;48.180;11.478;2023-07-16T13:15:07;27.50;90.50
4677;DHT22;2352;48.180;11.478;2023-07-16T13:18:11;27.50;90.20
4677;DHT22;2352;48.180;11.478;2023-07-16T13:21:14;27.60;90.50
4677;DHT22;2352;48.180;11.478;2023-07-16T13:24:17;27.70;91.20
4677;DHT22;2352;48.180;11.478;2023-07-16T13:27:20;27.90;90.80
4677;DHT22;2352;48.180;11.478;2023-07-16T13:30:25;27.90;88.50
4677;DHT22;2352;48.180;11.478;2023-07-16T13:33:28;27.90;90.00
4677;DHT22;2352;48.180;11.478;2023-07-16T13:36:31;28.00;90.00
4677;DHT22;2352;48.180;11.478;2023-07-16T13:39:34;28.30;90.60
4677;DHT22;2352;48.180;11.478;2023-07-16T13:42:37;28.50;88.50
4677;DHT22;2352;48.180;11.478;2023-07-16T13:45:42;28.50;86.20
4677;DHT22;2352;48.180;11.478;2023-07-16T13:48:45;28.30;87.50
4677;DHT22;2352;48.180;11.478;2023-07-16T13:51:59;28.40;87.00
4677;DHT22;2352;48.180;11.478;2023-07-16T13:55:02;28.70;87.10
4677;DHT22;2352;48.180;11.478;2023-07-16T13:58:06;28.70;84.50
4677;DHT22;2352;48.180;11.478;2023-07-16T14:01:10;28.60;84.50
4677;DHT22;2352;48.180;11.478;2023-07-16T14:04:13;28.70;85.10
4677;DHT22;2352;48.180;11.478;2023-07-16T14:07:16;28.80;86.80
4677;DHT22;2352;48.180;11.478;2023-07-16T14:10:19;28.80;85.50
4677;DHT22;2352;48.180;11.478;2023-07-16T14:13:22;28.80;85.10
4677;DHT22;2352;48.180;11.478;2023-07-16T14:16:26;28.60;85.30
4677;DHT22;2352;48.180;11.478;2023-07-16T14:19:30;28.70;85.40
4677;DHT22;2352;48.180;11.478;2023-07-16T14:22:33;28.80;85.30
4677;DHT22;2352;48.180;11.478;2023-07-16T14:25:36;28.80;82.90
4677;DHT22;2352;48.180;11.478;2023-07-16T14:28:39;28.70;83.20
4677;DHT22;2352;48.180;11.478;2023-07-16T14:31:43;28.60;82.90
4677;DHT22;2352;48.180;11.478;2023-07-16T14:34:46;28.40;83.60
4677;DHT22;2352;48.180;11.478;2023-07-16T14:37:49;28.30;84.10
4677;DHT22;2352;48.180;11.478;2023-07-16T14:40:52;28.20;84.60
4677;DHT22;2352;48.180;11.478;2023-07-16T14:43:55;28.20;84.80
4677;DHT22;2352;48.180;11.478;2023-07-16T14:47:00;28.30;84.40
4677;DHT22;2352;48.180;11.478;2023-07-16T14:50:03;28.30;85.60
4677;DHT22;2352;48.180;11.478;2023-07-16T14:53:07;28.40;83.60
4677;DHT22;2352;48.180;11.478;2023-07-16T14:56:10;28.30;83.00
4677;DHT22;2352;48.180;11.478;2023-07-16T14:59:13;28.20;84.20
4677;DHT22;2352;48.180;11.478;2023-07-16T15:02:17;28.20;83.40
4677;DHT22;2352;48.180;11.478;2023-07-16T15:05:20;28.20;84.50
4677;DHT22;2352;48.180;11.478;2023-07-16T15:08:23;28.20;84.50
4677;DHT22;2352;48.180;11.478;2023-07-16T15:11:27;28.10;83.00
4677;DHT22;2352;48.180;11.478;2023-07-16T15:14:30;28.10;83.40
4677;DHT22;2352;48.180;11.478;2023-07-16T15:17:36;28.00;83.50
4677;DHT22;2352;48.180;11.478;2023-07-16T15:20:39;28.00;83.00
4677;DHT22;2352;48.180;11.478;2023-07-16T15:23:43;28.00;83.60
4677;DHT22;2352;48.180;11.478;2023-07-16T15:26:47;28.00;82.80
4677;DHT22;2352;48.180;11.478;2023-07-16T15:29:50;28.10;84.40
4677;DHT22;2352;48.180;11.478;2023-07-16T15:32:54;28.10;84.10
4677;DHT22;2352;48.180;11.478;2023-07-16T15:35:57;28.20;82.50
4677;DHT22;2352;48.180;11.478;2023-07-16T15:39:00;28.20;82.30
4677;DHT22;2352;48.180;11.478;2023-07-16T15:42:04;28.20;81.80
4677;DHT22;2352;48.180;11.478;2023-07-16T15:45:10;28.20;81.30
4677;DHT22;2352;48.180;11.478;2023-07-16T15:48:16;28.20;82.30
4677;DHT22;2352;48.180;11.478;2023-07-16T15:51:19;28.20;82.00
4677;DHT22;2352;48.180;11.478;2023-07-16T15:54:22;28.30;83.00
4677;DHT22;2352;48.180;11.478;2023-07-16T15:57:26;28.30;83.40
4677;DHT22;2352;48.180;11.478;2023-07-16T16:00:29;28.30;82.90
4677;DHT22;2352;48.180;11.478;2023-07-16T16:03:33;28.30;83.00
4677;DHT22;2352;48.180;11.478;2023-07-16T16:06:36;28.30;83.20
4677;DHT22;2352;48.180;11.478;2023-07-16T16:09:40;28.40;83.00
4677;DHT22;2352;48.180;11.478;2023-07-16T16:12:43;28.30;82.70
4677;DHT22;2352;48.180;11.478;2023-07-16T16:15:46;28.30;81.30
4677;DHT22;2352;48.180;11.478;2023-07-16T16:18:51;28.20;80.30
4677;DHT22;2352;48.180;11.478;2023-07-16T16:21:54;28.20;80.90
4677;DHT22;2352;48.180;11.478;2023-07-16T16:25:00;28.20;81.00
4677;DHT22;2352;48.180;11.478;2023-07-16T16:28:06;28.20;81.20
4677;DHT22;2352;48.180;11.478;2023-07-16T16:31:09;28.10;82.00
4677;DHT22;2352;48.180;11.478;2023-07-16T16:34:14;28.10;81.20
4677;DHT22;2352;48.180;11.478;2023-07-16T16:37:17;28.10;81.20
4677;DHT22;2352;48.180;11.478;2023-07-16T16:40:21;28.10;80.70
4677;DHT22;2352;48.180;11.478;2023-07-16T16:43:24;28.10;80.80
4677;DHT22;2352;48.180;11.478;2023-07-16T16:46:26;28.10;81.80
4677;DHT22;2352;48.180;11.478;2023-07-16T16:49:31;28.10;80.70
4677;DHT22;2352;48.180;11.478;2023-07-16T16:52:35;28.10;80.30
4677;DHT22;2352;48.180;11.478;2023-07-16T16:55:38;28.00;81.20
4677;DHT22;2352;48.180;11.478;2023-07-16T16:58:41;28.00;81.80
4677;DHT22;2352;48.180;11.478;2023-07-16T17:01:44;28.00;80.00
4677;DHT22;2352;48.180;11.478;2023-07-16T17:04:49;27.90;81.50
4677;DHT22;2352;48.180;11.478;2023-07-16T17:07:52;27.80;81.30
4677;DHT22;2352;48.180;11.478;2023-07-16T17:10:55;27.80;82.00
4677;DHT22;2352;48.180;11.478;2023-07-16T17:13:58;27.80;82.30
4677;DHT22;2352;48.180;11.478;2023-07-16T17:17:02;27.80;82.40
4677;DHT22;2352;48.180;11.478;2023-07-16T17:20:07;27.80;82.30
4677;DHT22;2352;48.180;11.478;2023-07-16T17:23:13;27.80;81.50
4677;DHT22;2352;48.180;11.478;2023-07-16T17:26:18;27.70;81.70
4677;DHT22;2352;48.180;11.478;2023-07-16T17:29:21;27.70;82.00
4677;DHT22;2352;48.180;11.478;2023-07-16T17:32:24;27.60;82.70
4677;DHT22;2352;48.180;11.478;2023-07-16T17:35:28;27.70;82.90
4677;DHT22;2352;48.180;11.478;2023-07-16T17:38:31;27.70;81.50
4677;DHT22;2352;48.180;11.478;2023-07-16T17:41:34;27.60;82.30
4677;DHT22;2352;48.180;11.478;2023-07-16T17:44:39;27.60;82.50
4677;DHT22;2352;48.180;11.478;2023-07-16T17:47:42;27.60;81.00
4677;DHT22;2352;48.180;11.478;2023-07-16T17:50:46;27.60;81.40
4677;DHT22;2352;48.180;11.478;2023-07-16T17:53:49;27.60;82.10
4677;DHT22;2352;48.180;11.478;2023-07-16T17:56:53;27.50;81.70
4677;DHT22;2352;48.180;11.478;2023-07-16T17:59:56;27.50;82.30
4677;DHT22;2352;48.180;11.478;2023-07-16T18:03:18;27.50;82.50
4677;DHT22;2352;48.180;11.478;2023-07-16T18:06:23;27.40;81.40
4677;DHT22;2352;48.180;11.478;2023-07-16T18:09:27;27.40;81.50
4677;DHT22;2352;48.180;11.478;2023-07-16T18:12:31;27.30;81.90
4677;DHT22;2352;48.180;11.478;2023-07-16T18:15:34;27.30;82.30
4677;DHT22;2352;48.180;11.478;2023-07-16T18:18:38;27.30;83.00
4677;DHT22;2352;48.180;11.478;2023-07-16T18:21:43;27.30;82.10
4677;DHT22;2352;48.180;11.478;2023-07-16T18:25:09;27.20;81.90
4677;DHT22;2352;48.180;11.478;2023-07-16T18:28:11;27.20;82.90
4677;DHT22;2352;48.180;11.478;2023-07-16T18:31:14;27.20;82.40
4677;DHT22;2352;48.180;11.478;2023-07-16T18:34:17;27.10;81.90
4677;DHT22;2352;48.180;11.478;2023-07-16T18:37:22;27.10;81.20
4677;DHT22;2352;48.180;11.478;2023-07-16T18:40:25;27.00;80.60
4677;DHT22;2352;48.180;11.478;2023-07-16T18:43:28;27.00;81.30
4677;DHT22;2352;48.180;11.478;2023-07-16T18:46:31;26.90;82.10
4677;DHT22;2352;48.180;11.478;2023-07-16T18:49:35;26.90;81.30
4677;DHT22;2352;48.180;11.478;2023-07-16T18:52:41;26.90;81.40
4677;DHT22;2352;48.180;11.478;2023-07-16T18:55:44;26.90;82.90
4677;DHT22;2352;48.180;11.478;2023-07-16T18:58:47;26.80;82.40
4677;DHT22;2352;48.180;11.478;2023-07-16T19:01:50;26.80;83.40
4677;DHT22;2352;48.180;11.478;2023-07-16T19:04:53;26.80;84.00
4677;DHT22;2352;48.180;11.478;2023-07-16T19:07:57;26.80;84.70
4677;DHT22;2352;48.180;11.478;2023-07-16T19:11:00;26.70;84.20
4677;DHT22;2352;48.180;11.478;2023-07-16T19:14:04;26.70;84.20
4677;DHT22;2352;48.180;11.478;2023-07-16T19:17:12;26.60;84.20
4677;DHT22;2352;48.180;11.478;2023-07-16T19:20:15;26.60;85.00
4677;DHT22;2352;48.180;11.478;2023-07-16T19:23:20;26.50;85.90
4677;DHT22;2352;48.180;11.478;2023-07-16T19:26:23;26.50;86.10
4677;DHT22;2352;48.180;11.478;2023-07-16T19:29:26;26.40;85.40
4677;DHT22;2352;48.180;11.478;2023-07-16T19:32:29;26.40;86.70
4677;DHT22;2352;48.180;11.478;2023-07-16T19:35:33;26.30;86.90
4677;DHT22;2352;48.180;11.478;2023-07-16T19:38:40;26.30;87.10